sensor_id;sensor_type;location;lat;lon;timestamp;P1;durP1;ratioP1;P2;durP2;ratioP2
20997;SDS011;10657;51.276;6.390;2023-11-21T00:02:23;14.50;;;6.80;;
20997;SDS011;10657;51.276;6.390;2023-11-21T00:04:50;10.15;;;4.82;;
20997;SDS011;10657;51.276;6.390;2023-11-21T00:07:18;15.88;;;7.15;;
20997;SDS011;10657;51.276;6.390;2023-11-21T00:09:45;14.70;;;6.55;;
20997;SDS011;10657;51.276;6.390;2023-11-21T00:12:11;13.15;;;6.85;;
20997;SDS011;10657;51.276;6.390;2023-11-21T00:14:40;15.95;;;7.40;;
20997;SDS011;10657;51.276;6.390;2023-11-21T00:17:06;12.35;;;6.68;;
20997;SDS011;10657;51.276;6.390;2023-11-21T00:19:33;10.70;;;4.93;;
20997;SDS011;10657;51.276;6.390;2023-11-21T00:22:01;12.32;;;5.03;;
20997;SDS011;10657;51.276;6.390;2023-11-21T00:24:27;12.13;;;5.35;;
20997;SDS011;10657;51.276;6.390;2023-11-21T00:26:54;12.23;;;5.85;;
20997;SDS011;10657;51.276;6.390;2023-11-21T00:29:21;13.25;;;6.10;;
20997;SDS011;10657;51.276;6.390;2023-11-21T00:31:47;11.15;;;5.35;;
20997;SDS011;10657;51.276;6.390;2023-11-21T00:34:15;9.93;;;5.00;;
20997;SDS011;10657;51.276;6.390;2023-11-21T00:36:42;10.43;;;4.63;;
20997;SDS011;10657;51.276;6.390;2023-11-21T00:39:09;10.90;;;4.95;;
20997;SDS011;10657;51.276;6.390;2023-11-21T00:41:36;10.93;;;4.97;;
20997;SDS011;10657;51.276;6.390;2023-11-21T00:44:03;10.32;;;5.22;;
20997;SDS011;10657;51.276;6.390;2023-11-21T00:46:30;12.13;;;5.57;;
20997;SDS011;10657;51.276;6.390;2023-11-21T00:48:57;16.90;;;7.75;;
20997;SDS011;10657;51.276;6.390;2023-11-21T00:51:23;15.40;;;8.82;;
20997;SDS011;10657;51.276;6.390;2023-11-21T00:53:50;17.50;;;8.88;;
20997;SDS011;10657;51.276;6.390;2023-11-21T00:56:17;15.48;;;8.18;;
20997;SDS011;10657;51.276;6.390;2023-11-21T00:58:44;20.27;;;9.55;;
20997;SDS011;10657;51.276;6.390;2023-11-21T01:01:16;16.55;;;8.05;;
20997;SDS011;10657;51.276;6.390;2023-11-21T01:03:43;12.88;;;6.32;;
20997;SDS011;10657;51.276;6.390;2023-11-21T01:06:09;14.65;;;6.95;;
20997;SDS011;10657;51.276;6.390;2023-11-21T01:08:39;20.30;;;9.52;;
20997;SDS011;10657;51.276;6.390;2023-11-21T01:11:06;18.10;;;9.32;;
20997;SDS011;10657;51.276;6.390;2023-11-21T01:13:34;15.35;;;8.63;;
20997;SDS011;10657;51.276;6.390;2023-11-21T01:16:02;15.18;;;7.45;;
20997;SDS011;10657;51.276;6.390;2023-11-21T01:18:29;13.35;;;6.07;;
20997;SDS011;10657;51.276;6.390;2023-11-21T01:20:56;18.75;;;8.70;;
20997;SDS011;10657;51.276;6.390;2023-11-21T01:23:23;16.08;;;8.35;;
20997;SDS011;10657;51.276;6.390;2023-11-21T01:25:50;14.73;;;7.78;;
20997;SDS011;10657;51.276;6.390;2023-11-21T01:28:18;18.83;;;10.27;;
20997;SDS011;10657;51.276;6.390;2023-11-21T01:30:45;19.02;;;9.25;;
20997;SDS011;10657;51.276;6.390;2023-11-21T01:33:12;16.42;;;8.30;;
20997;SDS011;10657;51.276;6.390;2023-11-21T01:35:42;16.35;;;9.32;;
20997;SDS011;10657;51.276;6.390;2023-11-21T01:38:08;17.15;;;9.30;;
20997;SDS011;10657;51.276;6.390;2023-11-21T01:40:35;19.73;;;9.48;;
20997;SDS011;10657;51.276;6.390;2023-11-21T01:43:02;20.00;;;9.95;;
20997;SDS011;10657;51.276;6.390;2023-11-21T01:45:32;16.42;;;8.93;;
20997;SDS011;10657;51.276;6.390;2023-11-21T01:48:00;22.48;;;10.02;;
20997;SDS011;10657;51.276;6.390;2023-11-21T01:50:28;22.83;;;9.55;;
20997;SDS011;10657;51.276;6.390;2023-11-21T01:52:55;18.83;;;10.40;;
20997;SDS011;10657;51.276;6.390;2023-11-21T01:55:22;18.05;;;9.70;;
20997;SDS011;10657;51.276;6.390;2023-11-21T01:57:54;16.20;;;9.05;;
20997;SDS011;10657;51.276;6.390;2023-11-21T02:00:21;17.25;;;9.50;;
20997;SDS011;10657;51.276;6.390;2023-11-21T02:02:49;20.33;;;9.88;;
20997;SDS011;10657;51.276;6.390;2023-11-21T02:05:17;17.45;;;8.10;;
20997;SDS011;10657;51.276;6.390;2023-11-21T02:07:45;14.57;;;6.72;;
20997;SDS011;10657;51.276;6.390;2023-11-21T02:10:14;16.00;;;7.93;;
20997;SDS011;10657;51.276;6.390;2023-11-21T02:12:42;16.08;;;8.50;;
20997;SDS011;10657;51.276;6.390;2023-11-21T02:15:10;14.90;;;8.13;;
20997;SDS011;10657;51.276;6.390;2023-11-21T02:17:41;15.02;;;6.45;;
20997;SDS011;10657;51.276;6.390;2023-11-21T02:20:12;15.95;;;7.93;;
20997;SDS011;10657;51.276;6.390;2023-11-21T02:22:44;16.25;;;8.25;;
20997;SDS011;10657;51.276;6.390;2023-11-21T02:25:25;14.32;;;6.78;;
20997;SDS011;10657;51.276;6.390;2023-11-21T02:27:57;20.08;;;9.07;;
20997;SDS011;10657;51.276;6.390;2023-11-21T02:30:25;19.08;;;9.55;;
20997;SDS011;10657;51.276;6.390;2023-11-21T02:32:52;19.88;;;8.63;;
20997;SDS011;10657;51.276;6.390;2023-11-21T02:35:19;19.45;;;9.38;;
20997;SDS011;10657;51.276;6.390;2023-11-21T02:37:52;18.58;;;9.13;;
20997;SDS011;10657;51.276;6.390;2023-11-21T02:40:19;13.70;;;5.78;;
20997;SDS011;10657;51.276;6.390;2023-11-21T02:42:51;12.82;;;5.32;;
20997;SDS011;10657;51.276;6.390;2023-11-21T02:45:18;13.45;;;5.55;;
20997;SDS011;10657;51.276;6.390;2023-11-21T02:47:50;12.27;;;6.07;;
20997;SDS011;10657;51.276;6.390;2023-11-21T02:50:19;20.25;;;9.10;;
20997;SDS011;10657;51.276;6.390;2023-11-21T02:52:46;16.83;;;9.43;;
20997;SDS011;10657;51.276;6.390;2023-11-21T02:55:13;22.20;;;10.18;;
20997;SDS011;10657;51.276;6.390;2023-11-21T02:57:40;17.45;;;9.18;;
20997;SDS011;10657;51.276;6.390;2023-11-21T03:00:07;20.25;;;9.68;;
20997;SDS011;10657;51.276;6.390;2023-11-21T03:02:36;18.25;;;9.50;;
20997;SDS011;10657;51.276;6.390;2023-11-21T03:05:05;21.23;;;10.10;;
20997;SDS011;10657;51.276;6.390;2023-11-21T03:07:32;19.20;;;9.65;;
20997;SDS011;10657;51.276;6.390;2023-11-21T03:09:59;20.50;;;10.73;;
20997;SDS011;10657;51.276;6.390;2023-11-21T03:12:26;24.60;;;10.27;;
20997;SDS011;10657;51.276;6.390;2023-11-21T03:14:53;18.75;;;9.25;;
20997;SDS011;10657;51.276;6.390;2023-11-21T03:17:20;18.42;;;9.45;;
20997;SDS011;10657;51.276;6.390;2023-11-21T03:19:47;18.77;;;9.00;;
20997;SDS011;10657;51.276;6.390;2023-11-21T03:22:13;20.60;;;9.57;;
20997;SDS011;10657;51.276;6.390;2023-11-21T03:24:40;20.73;;;9.30;;
20997;SDS011;10657;51.276;6.390;2023-11-21T03:27:07;16.55;;;8.85;;
20997;SDS011;10657;51.276;6.390;2023-11-21T03:29:34;12.00;;;6.10;;
20997;SDS011;10657;51.276;6.390;2023-11-21T03:32:01;21.63;;;9.90;;
20997;SDS011;10657;51.276;6.390;2023-11-21T03:34:28;19.98;;;10.15;;
20997;SDS011;10657;51.276;6.390;2023-11-21T03:36:55;17.40;;;9.50;;
20997;SDS011;10657;51.276;6.390;2023-11-21T03:39:21;23.85;;;10.25;;
20997;SDS011;10657;51.276;6.390;2023-11-21T03:41:49;23.52;;;10.23;;
20997;SDS011;10657;51.276;6.390;2023-11-21T03:44:15;21.77;;;10.93;;
20997;SDS011;10657;51.276;6.390;2023-11-21T03:46:43;19.05;;;10.32;;
20997;SDS011;10657;51.276;6.390;2023-11-21T03:49:10;18.17;;;9.45;;
20997;SDS011;10657;51.276;6.390;2023-11-21T03:51:37;17.80;;;9.30;;
20997;SDS011;10657;51.276;6.390;2023-11-21T03:54:03;20.73;;;10.00;;
20997;SDS011;10657;51.276;6.390;2023-11-21T03:56:30;19.67;;;9.25;;
20997;SDS011;10657;51.276;6.390;2023-11-21T03:58:57;20.50;;;9.25;;
20997;SDS011;10657;51.276;6.390;2023-11-21T04:01:24;16.23;;;6.28;;
20997;SDS011;10657;51.276;6.390;2023-11-21T04:03:51;20.90;;;10.10;;
20997;SDS011;10657;51.276;6.390;2023-11-21T04:06:18;19.23;;;10.32;;
20997;SDS011;10657;51.276;6.390;2023-11-21T04:08:45;19.50;;;9.80;;
20997;SDS011;10657;51.276;6.390;2023-11-21T04:11:12;20.10;;;10.35;;
20997;SDS011;10657;51.276;6.390;2023-11-21T04:13:39;18.60;;;9.80;;
20997;SDS011;10657;51.276;6.390;2023-11-21T04:16:07;19.10;;;10.02;;
20997;SDS011;10657;51.276;6.390;2023-11-21T04:18:35;22.77;;;10.95;;
20997;SDS011;10657;51.276;6.390;2023-11-21T04:21:03;20.08;;;10.88;;
20997;SDS011;10657;51.276;6.390;2023-11-21T04:23:33;18.75;;;9.55;;
20997;SDS011;10657;51.276;6.390;2023-11-21T04:26:01;17.92;;;10.40;;
20997;SDS011;10657;51.276;6.390;2023-11-21T04:28:28;13.60;;;5.75;;
20997;SDS011;10657;51.276;6.390;2023-11-21T04:30:55;17.63;;;10.35;;
20997;SDS011;10657;51.276;6.390;2023-11-21T04:33:22;18.65;;;10.38;;
20997;SDS011;10657;51.276;6.390;2023-11-21T04:35:49;19.33;;;9.60;;
20997;SDS011;10657;51.276;6.390;2023-11-21T04:38:16;18.67;;;9.68;;
20997;SDS011;10657;51.276;6.390;2023-11-21T04:40:42;17.45;;;9.93;;
20997;SDS011;10657;51.276;6.390;2023-11-21T04:43:09;16.58;;;9.23;;
20997;SDS011;10657;51.276;6.390;2023-11-21T04:45:36;17.23;;;9.00;;
20997;SDS011;10657;51.276;6.390;2023-11-21T04:48:03;23.40;;;10.95;;
20997;SDS011;10657;51.276;6.390;2023-11-21T04:50:30;18.48;;;10.70;;
20997;SDS011;10657;51.276;6.390;2023-11-21T04:52:56;19.05;;;10.88;;
20997;SDS011;10657;51.276;6.390;2023-11-21T04:55:23;19.38;;;10.65;;
20997;SDS011;10657;51.276;6.390;2023-11-21T04:57:50;20.98;;;11.85;;
20997;SDS011;10657;51.276;6.390;2023-11-21T05:00:17;20.05;;;11.68;;
20997;SDS011;10657;51.276;6.390;2023-11-21T05:02:44;20.27;;;11.38;;
20997;SDS011;10657;51.276;6.390;2023-11-21T05:05:11;22.27;;;11.73;;
20997;SDS011;10657;51.276;6.390;2023-11-21T05:07:39;21.33;;;11.27;;
20997;SDS011;10657;51.276;6.390;2023-11-21T05:10:06;22.17;;;11.18;;
20997;SDS011;10657;51.276;6.390;2023-11-21T05:12:36;22.10;;;11.40;;
20997;SDS011;10657;51.276;6.390;2023-11-21T05:15:04;23.17;;;11.75;;
20997;SDS011;10657;51.276;6.390;2023-11-21T05:17:37;17.00;;;8.38;;
20997;SDS011;10657;51.276;6.390;2023-11-21T05:20:14;23.95;;;12.55;;
20997;SDS011;10657;51.276;6.390;2023-11-21T05:22:44;20.13;;;11.10;;
20997;SDS011;10657;51.276;6.390;2023-11-21T05:25:11;20.92;;;11.90;;
20997;SDS011;10657;51.276;6.390;2023-11-21T05:27:38;25.85;;;11.95;;
20997;SDS011;10657;51.276;6.390;2023-11-21T05:30:05;23.52;;;12.95;;
20997;SDS011;10657;51.276;6.390;2023-11-21T05:32:32;24.35;;;12.55;;
20997;SDS011;10657;51.276;6.390;2023-11-21T05:35:00;28.63;;;14.35;;
20997;SDS011;10657;51.276;6.390;2023-11-21T05:37:27;24.50;;;13.77;;
20997;SDS011;10657;51.276;6.390;2023-11-21T05:39:54;26.83;;;14.23;;
20997;SDS011;10657;51.276;6.390;2023-11-21T05:42:22;24.88;;;14.32;;
20997;SDS011;10657;51.276;6.390;2023-11-21T05:44:49;29.35;;;15.23;;
20997;SDS011;10657;51.276;6.390;2023-11-21T05:47:16;27.35;;;15.07;;
20997;SDS011;10657;51.276;6.390;2023-11-21T05:49:44;29.17;;;15.05;;
20997;SDS011;10657;51.276;6.390;2023-11-21T05:52:12;29.70;;;14.05;;
20997;SDS011;10657;51.276;6.390;2023-11-21T05:54:38;27.80;;;15.13;;
20997;SDS011;10657;51.276;6.390;2023-11-21T05:57:05;29.85;;;15.57;;
20997;SDS011;10657;51.276;6.390;2023-11-21T05:59:32;28.75;;;15.38;;
20997;SDS011;10657;51.276;6.390;2023-11-21T06:01:58;29.27;;;15.05;;
20997;SDS011;10657;51.276;6.390;2023-11-21T06:04:25;29.52;;;15.75;;
20997;SDS011;10657;51.276;6.390;2023-11-21T06:06:52;27.67;;;14.68;;
20997;SDS011;10657;51.276;6.390;2023-11-21T06:09:19;27.02;;;13.98;;
20997;SDS011;10657;51.276;6.390;2023-11-21T06:11:46;31.35;;;15.50;;
20997;SDS011;10657;51.276;6.390;2023-11-21T06:14:13;26.13;;;14.20;;
20997;SDS011;10657;51.276;6.390;2023-11-21T06:16:43;35.33;;;16.70;;
20997;SDS011;10657;51.276;6.390;2023-11-21T06:19:11;29.83;;;16.73;;
20997;SDS011;10657;51.276;6.390;2023-11-21T06:21:38;36.28;;;18.23;;
20997;SDS011;10657;51.276;6.390;2023-11-21T06:24:05;33.28;;;15.60;;
20997;SDS011;10657;51.276;6.390;2023-11-21T06:26:33;33.15;;;16.77;;
20997;SDS011;10657;51.276;6.390;2023-11-21T06:29:00;33.95;;;16.48;;
20997;SDS011;10657;51.276;6.390;2023-11-21T06:31:29;35.15;;;16.92;;
20997;SDS011;10657;51.276;6.390;2023-11-21T06:33:56;32.13;;;16.63;;
20997;SDS011;10657;51.276;6.390;2023-11-21T06:36:24;34.20;;;16.77;;
20997;SDS011;10657;51.276;6.390;2023-11-21T06:38:50;36.95;;;17.92;;
20997;SDS011;10657;51.276;6.390;2023-11-21T06:41:17;35.20;;;16.45;;
20997;SDS011;10657;51.276;6.390;2023-11-21T06:43:44;37.30;;;18.70;;
20997;SDS011;10657;51.276;6.390;2023-11-21T06:46:13;36.63;;;17.00;;
20997;SDS011;10657;51.276;6.390;2023-11-21T06:48:42;37.17;;;17.88;;
20997;SDS011;10657;51.276;6.390;2023-11-21T06:51:10;34.03;;;16.60;;
20997;SDS011;10657;51.276;6.390;2023-11-21T06:53:37;39.85;;;21.33;;
20997;SDS011;10657;51.276;6.390;2023-11-21T06:56:04;33.00;;;16.15;;
20997;SDS011;10657;51.276;6.390;2023-11-21T06:58:41;33.63;;;16.42;;
20997;SDS011;10657;51.276;6.390;2023-11-21T07:01:08;29.20;;;14.68;;
20997;SDS011;10657;51.276;6.390;2023-11-21T07:03:35;34.80;;;18.80;;
20997;SDS011;10657;51.276;6.390;2023-11-21T07:06:04;35.10;;;17.33;;
20997;SDS011;10657;51.276;6.390;2023-11-21T07:08:31;34.83;;;16.45;;
20997;SDS011;10657;51.276;6.390;2023-11-21T07:10:57;33.95;;;16.63;;
20997;SDS011;10657;51.276;6.390;2023-11-21T07:13:24;31.13;;;16.35;;
20997;SDS011;10657;51.276;6.390;2023-11-21T07:15:52;28.38;;;16.05;;
20997;SDS011;10657;51.276;6.390;2023-11-21T07:18:18;36.17;;;18.30;;
20997;SDS011;10657;51.276;6.390;2023-11-21T07:20:45;27.60;;;15.68;;
20997;SDS011;10657;51.276;6.390;2023-11-21T07:23:12;31.17;;;16.65;;
20997;SDS011;10657;51.276;6.390;2023-11-21T07:25:39;29.95;;;16.02;;
20997;SDS011;10657;51.276;6.390;2023-11-21T07:28:07;30.92;;;15.55;;
20997;SDS011;10657;51.276;6.390;2023-11-21T07:30:34;31.33;;;15.02;;
20997;SDS011;10657;51.276;6.390;2023-11-21T07:33:01;33.28;;;17.23;;
20997;SDS011;10657;51.276;6.390;2023-11-21T07:35:28;32.47;;;16.38;;
20997;SDS011;10657;51.276;6.390;2023-11-21T07:37:54;32.10;;;17.42;;
20997;SDS011;10657;51.276;6.390;2023-11-21T07:40:21;30.92;;;16.77;;
20997;SDS011;10657;51.276;6.390;2023-11-21T07:42:48;33.58;;;17.15;;
20997;SDS011;10657;51.276;6.390;2023-11-21T07:45:16;29.98;;;15.73;;
20997;SDS011;10657;51.276;6.390;2023-11-21T07:47:43;29.30;;;16.92;;
20997;SDS011;10657;51.276;6.390;2023-11-21T07:50:10;28.10;;;15.50;;
20997;SDS011;10657;51.276;6.390;2023-11-21T07:52:37;29.92;;;16.10;;
20997;SDS011;10657;51.276;6.390;2023-11-21T07:55:03;30.48;;;15.63;;
20997;SDS011;10657;51.276;6.390;2023-11-21T07:57:31;29.50;;;16.58;;
20997;SDS011;10657;51.276;6.390;2023-11-21T07:59:57;29.05;;;15.98;;
20997;SDS011;10657;51.276;6.390;2023-11-21T08:02:24;28.58;;;16.73;;
20997;SDS011;10657;51.276;6.390;2023-11-21T08:04:52;28.45;;;15.57;;
20997;SDS011;10657;51.276;6.390;2023-11-21T08:07:19;28.42;;;15.65;;
20997;SDS011;10657;51.276;6.390;2023-11-21T08:09:45;27.77;;;14.65;;
20997;SDS011;10657;51.276;6.390;2023-11-21T08:12:14;27.88;;;15.25;;
20997;SDS011;10657;51.276;6.390;2023-11-21T08:14:41;26.13;;;14.73;;
20997;SDS011;10657;51.276;6.390;2023-11-21T08:17:08;29.67;;;14.85;;
20997;SDS011;10657;51.276;6.390;2023-11-21T08:19:36;25.08;;;12.55;;
20997;SDS011;10657;51.276;6.390;2023-11-21T08:22:03;24.25;;;12.48;;
20997;SDS011;10657;51.276;6.390;2023-11-21T08:24:30;24.77;;;12.18;;
20997;SDS011;10657;51.276;6.390;2023-11-21T08:26:57;23.33;;;13.05;;
20997;SDS011;10657;51.276;6.390;2023-11-21T08:29:24;22.73;;;12.40;;
20997;SDS011;10657;51.276;6.390;2023-11-21T08:31:51;22.05;;;11.30;;
20997;SDS011;10657;51.276;6.390;2023-11-21T08:34:18;24.70;;;12.75;;
20997;SDS011;10657;51.276;6.390;2023-11-21T08:36:44;26.40;;;12.20;;
20997;SDS011;10657;51.276;6.390;2023-11-21T08:39:11;25.63;;;13.20;;
20997;SDS011;10657;51.276;6.390;2023-11-21T08:41:39;23.88;;;13.02;;
20997;SDS011;10657;51.276;6.390;2023-11-21T08:44:06;23.65;;;12.50;;
20997;SDS011;10657;51.276;6.390;2023-11-21T08:46:33;21.40;;;11.43;;
20997;SDS011;10657;51.276;6.390;2023-11-21T08:49:03;20.67;;;11.05;;
20997;SDS011;10657;51.276;6.390;2023-11-21T08:51:30;17.40;;;8.20;;
20997;SDS011;10657;51.276;6.390;2023-11-21T08:53:57;21.40;;;11.25;;
20997;SDS011;10657;51.276;6.390;2023-11-21T08:56:26;22.08;;;10.77;;
20997;SDS011;10657;51.276;6.390;2023-11-21T08:58:53;20.92;;;10.75;;
20997;SDS011;10657;51.276;6.390;2023-11-21T09:01:20;18.60;;;9.85;;
20997;SDS011;10657;51.276;6.390;2023-11-21T09:03:47;15.65;;;6.85;;
20997;SDS011;10657;51.276;6.390;2023-11-21T09:06:16;16.65;;;7.15;;
20997;SDS011;10657;51.276;6.390;2023-11-21T09:08:44;15.10;;;6.70;;
20997;SDS011;10657;51.276;6.390;2023-11-21T09:11:11;14.15;;;7.03;;
20997;SDS011;10657;51.276;6.390;2023-11-21T09:13:38;13.48;;;6.65;;
20997;SDS011;10657;51.276;6.390;2023-11-21T09:16:04;17.27;;;8.60;;
20997;SDS011;10657;51.276;6.390;2023-11-21T09:18:31;16.17;;;8.98;;
20997;SDS011;10657;51.276;6.390;2023-11-21T09:20:58;16.90;;;8.80;;
20997;SDS011;10657;51.276;6.390;2023-11-21T09:23:25;18.55;;;9.73;;
20997;SDS011;10657;51.276;6.390;2023-11-21T09:25:52;18.90;;;9.18;;
20997;SDS011;10657;51.276;6.390;2023-11-21T09:28:22;19.02;;;9.68;;
20997;SDS011;10657;51.276;6.390;2023-11-21T09:30:49;16.83;;;8.15;;
20997;SDS011;10657;51.276;6.390;2023-11-21T09:33:16;18.35;;;9.00;;
20997;SDS011;10657;51.276;6.390;2023-11-21T09:35:43;12.18;;;5.88;;
20997;SDS011;10657;51.276;6.390;2023-11-21T09:38:10;20.77;;;10.45;;
20997;SDS011;10657;51.276;6.390;2023-11-21T09:40:37;19.63;;;9.30;;
20997;SDS011;10657;51.276;6.390;2023-11-21T09:43:17;18.38;;;8.95;;
20997;SDS011;10657;51.276;6.390;2023-11-21T09:45:49;21.30;;;9.70;;
20997;SDS011;10657;51.276;6.390;2023-11-21T09:48:23;20.55;;;9.80;;
20997;SDS011;10657;51.276;6.390;2023-11-21T09:50:51;20.17;;;9.77;;
20997;SDS011;10657;51.276;6.390;2023-11-21T09:53:21;16.90;;;9.13;;
20997;SDS011;10657;51.276;6.390;2023-11-21T09:55:51;17.35;;;8.23;;
20997;SDS011;10657;51.276;6.390;2023-11-21T09:58:19;17.33;;;8.85;;
20997;SDS011;10657;51.276;6.390;2023-11-21T10:00:48;17.45;;;9.15;;
20997;SDS011;10657;51.276;6.390;2023-11-21T10:03:18;18.92;;;9.05;;
20997;SDS011;10657;51.276;6.390;2023-11-21T10:05:45;16.30;;;8.38;;
20997;SDS011;10657;51.276;6.390;2023-11-21T10:08:14;17.30;;;8.80;;
20997;SDS011;10657;51.276;6.390;2023-11-21T10:10:44;15.38;;;7.43;;
20997;SDS011;10657;51.276;6.390;2023-11-21T10:13:12;17.83;;;9.25;;
20997;SDS011;10657;51.276;6.390;2023-11-21T10:15:43;18.13;;;9.05;;
20997;SDS011;10657;51.276;6.390;2023-11-21T10:18:15;19.42;;;8.32;;
20997;SDS011;10657;51.276;6.390;2023-11-21T10:20:42;16.65;;;8.50;;
20997;SDS011;10657;51.276;6.390;2023-11-21T10:23:09;18.00;;;8.70;;
20997;SDS011;10657;51.276;6.390;2023-11-21T10:25:37;19.92;;;9.23;;
20997;SDS011;10657;51.276;6.390;2023-11-21T10:28:04;21.00;;;9.23;;
20997;SDS011;10657;51.276;6.390;2023-11-21T10:30:33;19.83;;;9.40;;
20997;SDS011;10657;51.276;6.390;2023-11-21T10:33:03;18.30;;;8.10;;
20997;SDS011;10657;51.276;6.390;2023-11-21T10:35:47;19.00;;;8.40;;
20997;SDS011;10657;51.276;6.390;2023-11-21T10:38:18;14.95;;;6.75;;
20997;SDS011;10657;51.276;6.390;2023-11-21T10:40:47;18.83;;;8.90;;
20997;SDS011;10657;51.276;6.390;2023-11-21T10:43:15;18.55;;;6.22;;
20997;SDS011;10657;51.276;6.390;2023-11-21T10:45:43;16.80;;;7.78;;
20997;SDS011;10657;51.276;6.390;2023-11-21T10:48:10;19.05;;;9.93;;
20997;SDS011;10657;51.276;6.390;2023-11-21T10:50:42;16.67;;;7.28;;
20997;SDS011;10657;51.276;6.390;2023-11-21T10:53:10;19.85;;;9.50;;
20997;SDS011;10657;51.276;6.390;2023-11-21T10:55:38;21.05;;;9.30;;
20997;SDS011;10657;51.276;6.390;2023-11-21T10:58:05;19.25;;;8.65;;
20997;SDS011;10657;51.276;6.390;2023-11-21T11:00:32;19.10;;;8.90;;
20997;SDS011;10657;51.276;6.390;2023-11-21T11:03:00;18.13;;;9.18;;
20997;SDS011;10657;51.276;6.390;2023-11-21T11:05:30;21.58;;;10.07;;
20997;SDS011;10657;51.276;6.390;2023-11-21T11:07:59;19.17;;;9.13;;
20997;SDS011;10657;51.276;6.390;2023-11-21T11:10:30;15.25;;;5.72;;
20997;SDS011;10657;51.276;6.390;2023-11-21T11:12:58;17.70;;;8.05;;
20997;SDS011;10657;51.276;6.390;2023-11-21T11:15:26;20.20;;;9.02;;
20997;SDS011;10657;51.276;6.390;2023-11-21T11:17:54;19.38;;;9.02;;
20997;SDS011;10657;51.276;6.390;2023-11-21T11:20:25;19.48;;;9.23;;
20997;SDS011;10657;51.276;6.390;2023-11-21T11:29:14;20.42;;;9.68;;
20997;SDS011;10657;51.276;6.390;2023-11-21T11:32:13;15.20;;;6.57;;
20997;SDS011;10657;51.276;6.390;2023-11-21T11:35:01;10.60;;;5.03;;
20997;SDS011;10657;51.276;6.390;2023-11-21T11:37:33;13.48;;;5.80;;
20997;SDS011;10657;51.276;6.390;2023-11-21T11:40:00;12.85;;;6.15;;
20997;SDS011;10657;51.276;6.390;2023-11-21T11:42:26;14.23;;;6.40;;
20997;SDS011;10657;51.276;6.390;2023-11-21T11:44:53;19.33;;;8.05;;
20997;SDS011;10657;51.276;6.390;2023-11-21T11:47:26;16.95;;;6.18;;
20997;SDS011;10657;51.276;6.390;2023-11-21T11:50:08;6.93;;;2.83;;
20997;SDS011;10657;51.276;6.390;2023-11-21T11:52:43;6.50;;;2.35;;
20997;SDS011;10657;51.276;6.390;2023-11-21T11:55:12;15.05;;;5.95;;
20997;SDS011;10657;51.276;6.390;2023-11-21T11:57:41;13.88;;;6.30;;
20997;SDS011;10657;51.276;6.390;2023-11-21T12:02:50;12.25;;;4.72;;
20997;SDS011;10657;51.276;6.390;2023-11-21T12:05:21;6.63;;;2.95;;
20997;SDS011;10657;51.276;6.390;2023-11-21T12:07:50;7.43;;;2.85;;
20997;SDS011;10657;51.276;6.390;2023-11-21T12:10:24;11.90;;;5.38;;
20997;SDS011;10657;51.276;6.390;2023-11-21T12:12:52;11.27;;;5.15;;
20997;SDS011;10657;51.276;6.390;2023-11-21T12:15:29;14.25;;;6.07;;
20997;SDS011;10657;51.276;6.390;2023-11-21T12:17:57;15.45;;;7.35;;
20997;SDS011;10657;51.276;6.390;2023-11-21T12:20:27;11.82;;;5.78;;
20997;SDS011;10657;51.276;6.390;2023-11-21T12:22:58;18.85;;;9.07;;
20997;SDS011;10657;51.276;6.390;2023-11-21T12:25:27;14.65;;;6.32;;
20997;SDS011;10657;51.276;6.390;2023-11-21T12:27:55;11.63;;;5.38;;
20997;SDS011;10657;51.276;6.390;2023-11-21T12:30:24;9.50;;;3.90;;
20997;SDS011;10657;51.276;6.390;2023-11-21T12:32:57;13.40;;;6.53;;
20997;SDS011;10657;51.276;6.390;2023-11-21T12:35:25;13.07;;;5.55;;
20997;SDS011;10657;51.276;6.390;2023-11-21T12:37:57;12.15;;;5.35;;
20997;SDS011;10657;51.276;6.390;2023-11-21T12:40:24;13.70;;;4.75;;
20997;SDS011;10657;51.276;6.390;2023-11-21T12:42:52;22.80;;;12.43;;
20997;SDS011;10657;51.276;6.390;2023-11-21T12:45:21;20.00;;;9.88;;
20997;SDS011;10657;51.276;6.390;2023-11-21T12:47:52;18.30;;;10.00;;
20997;SDS011;10657;51.276;6.390;2023-11-21T12:50:27;21.73;;;10.63;;
20997;SDS011;10657;51.276;6.390;2023-11-21T12:52:58;24.10;;;10.45;;
20997;SDS011;10657;51.276;6.390;2023-11-21T12:55:29;17.05;;;7.68;;
20997;SDS011;10657;51.276;6.390;2023-11-21T12:57:57;12.63;;;6.45;;
20997;SDS011;10657;51.276;6.390;2023-11-21T13:00:33;17.52;;;7.95;;
20997;SDS011;10657;51.276;6.390;2023-11-21T13:03:08;15.95;;;7.00;;
20997;SDS011;10657;51.276;6.390;2023-11-21T13:05:36;18.90;;;8.82;;
20997;SDS011;10657;51.276;6.390;2023-11-21T13:08:25;23.60;;;11.00;;
20997;SDS011;10657;51.276;6.390;2023-11-21T13:10:53;22.73;;;10.98;;
20997;SDS011;10657;51.276;6.390;2023-11-21T13:13:23;22.75;;;10.68;;
20997;SDS011;10657;51.276;6.390;2023-11-21T13:15:53;22.65;;;11.15;;
20997;SDS011;10657;51.276;6.390;2023-11-21T13:18:28;16.15;;;7.72;;
20997;SDS011;10657;51.276;6.390;2023-11-21T13:20:56;21.45;;;10.23;;
20997;SDS011;10657;51.276;6.390;2023-11-21T13:23:25;18.88;;;8.65;;
20997;SDS011;10657;51.276;6.390;2023-11-21T13:25:53;23.05;;;11.25;;
20997;SDS011;10657;51.276;6.390;2023-11-21T13:28:31;20.27;;;10.48;;
20997;SDS011;10657;51.276;6.390;2023-11-21T13:30:59;35.38;;;12.02;;
20997;SDS011;10657;51.276;6.390;2023-11-21T13:33:37;24.05;;;11.20;;
20997;SDS011;10657;51.276;6.390;2023-11-21T13:36:05;20.25;;;10.85;;
20997;SDS011;10657;51.276;6.390;2023-11-21T13:38:35;22.35;;;11.02;;
20997;SDS011;10657;51.276;6.390;2023-11-21T13:41:03;20.27;;;10.23;;
20997;SDS011;10657;51.276;6.390;2023-11-21T13:43:33;16.05;;;7.63;;
20997;SDS011;10657;51.276;6.390;2023-11-21T13:46:00;14.45;;;6.50;;
20997;SDS011;10657;51.276;6.390;2023-11-21T13:48:39;21.38;;;9.25;;
20997;SDS011;10657;51.276;6.390;2023-11-21T13:51:09;19.55;;;10.07;;
20997;SDS011;10657;51.276;6.390;2023-11-21T13:53:47;12.40;;;5.80;;
20997;SDS011;10657;51.276;6.390;2023-11-21T13:56:17;21.90;;;10.25;;
20997;SDS011;10657;51.276;6.390;2023-11-21T13:58:51;18.20;;;9.32;;
20997;SDS011;10657;51.276;6.390;2023-11-21T14:01:23;16.95;;;7.85;;
20997;SDS011;10657;51.276;6.390;2023-11-21T14:03:59;20.85;;;9.95;;
20997;SDS011;10657;51.276;6.390;2023-11-21T14:06:46;12.73;;;4.47;;
20997;SDS011;10657;51.276;6.390;2023-11-21T14:09:19;13.82;;;6.75;;
20997;SDS011;10657;51.276;6.390;2023-11-21T14:11:55;12.02;;;5.50;;
20997;SDS011;10657;51.276;6.390;2023-11-21T14:14:24;14.38;;;7.13;;
20997;SDS011;10657;51.276;6.390;2023-11-21T14:16:52;19.27;;;10.32;;
20997;SDS011;10657;51.276;6.390;2023-11-21T14:19:19;13.45;;;7.00;;
20997;SDS011;10657;51.276;6.390;2023-11-21T14:21:47;13.65;;;6.65;;
20997;SDS011;10657;51.276;6.390;2023-11-21T14:24:16;5.63;;;2.30;;
20997;SDS011;10657;51.276;6.390;2023-11-21T14:26:45;19.30;;;9.88;;
20997;SDS011;10657;51.276;6.390;2023-11-21T14:29:13;14.52;;;6.93;;
20997;SDS011;10657;51.276;6.390;2023-11-21T14:31:43;11.70;;;5.68;;
20997;SDS011;10657;51.276;6.390;2023-11-21T14:34:10;15.70;;;8.63;;
20997;SDS011;10657;51.276;6.390;2023-11-21T14:36:38;14.45;;;7.40;;
20997;SDS011;10657;51.276;6.390;2023-11-21T14:39:05;12.55;;;6.35;;
20997;SDS011;10657;51.276;6.390;2023-11-21T14:41:35;16.02;;;8.48;;
20997;SDS011;10657;51.276;6.390;2023-11-21T14:44:04;12.50;;;6.75;;
20997;SDS011;10657;51.276;6.390;2023-11-21T14:46:33;17.35;;;9.82;;